sensor_id;sensor_type;location;lat;lon;timestamp;P1;durP1;ratioP1;P2;durP2;ratioP2
13228;SDS011;6680;53.220;10.402;2022-12-17T00:01:53;26.53;;;16.67;;
13228;SDS011;6680;53.220;10.402;2022-12-17T00:04:38;30.57;;;15.77;;
13228;SDS011;6680;53.220;10.402;2022-12-17T00:07:22;24.17;;;16.33;;
13228;SDS011;6680;53.220;10.402;2022-12-17T00:10:07;25.03;;;16.23;;
13228;SDS011;6680;53.220;10.402;2022-12-17T00:12:52;23.40;;;15.87;;
13228;SDS011;6680;53.220;10.402;2022-12-17T00:15:37;29.87;;;17.70;;
13228;SDS011;6680;53.220;10.402;2022-12-17T00:18:20;27.47;;;17.13;;
13228;SDS011;6680;53.220;10.402;2022-12-17T00:21:07;31.13;;;16.27;;
13228;SDS011;6680;53.220;10.402;2022-12-17T00:23:52;33.33;;;17.87;;
13228;SDS011;6680;53.220;10.402;2022-12-17T00:26:36;28.80;;;17.67;;
13228;SDS011;6680;53.220;10.402;2022-12-17T00:29:20;25.37;;;16.27;;
13228;SDS011;6680;53.220;10.402;2022-12-17T00:32:05;26.00;;;15.00;;
13228;SDS011;6680;53.220;10.402;2022-12-17T00:34:49;27.23;;;16.07;;
13228;SDS011;6680;53.220;10.402;2022-12-17T00:37:34;29.03;;;16.97;;
13228;SDS011;6680;53.220;10.402;2022-12-17T00:40:18;31.07;;;17.07;;
13228;SDS011;6680;53.220;10.402;2022-12-17T00:43:03;25.90;;;16.30;;
13228;SDS011;6680;53.220;10.402;2022-12-17T00:45:48;28.57;;;16.67;;
13228;SDS011;6680;53.220;10.402;2022-12-17T00:48:33;28.80;;;15.70;;
13228;SDS011;6680;53.220;10.402;2022-12-17T00:51:17;27.07;;;17.07;;
13228;SDS011;6680;53.220;10.402;2022-12-17T00:54:04;26.50;;;15.47;;
13228;SDS011;6680;53.220;10.402;2022-12-17T00:56:48;28.50;;;16.50;;
13228;SDS011;6680;53.220;10.402;2022-12-17T00:59:41;25.73;;;14.83;;
13228;SDS011;6680;53.220;10.402;2022-12-17T01:02:26;26.37;;;16.00;;
13228;SDS011;6680;53.220;10.402;2022-12-17T01:05:10;22.07;;;15.23;;
13228;SDS011;6680;53.220;10.402;2022-12-17T01:07:55;26.47;;;16.37;;
13228;SDS011;6680;53.220;10.402;2022-12-17T01:10:41;30.00;;;15.90;;
13228;SDS011;6680;53.220;10.402;2022-12-17T01:13:26;31.10;;;16.60;;
13228;SDS011;6680;53.220;10.402;2022-12-17T01:16:10;28.90;;;17.00;;
13228;SDS011;6680;53.220;10.402;2022-12-17T01:18:56;22.83;;;14.10;;
13228;SDS011;6680;53.220;10.402;2022-12-17T01:21:41;27.27;;;17.13;;
13228;SDS011;6680;53.220;10.402;2022-12-17T01:24:27;27.73;;;15.90;;
13228;SDS011;6680;53.220;10.402;2022-12-17T01:27:14;28.53;;;15.77;;
13228;SDS011;6680;53.220;10.402;2022-12-17T01:29:59;28.40;;;16.23;;
13228;SDS011;6680;53.220;10.402;2022-12-17T01:32:43;24.30;;;16.03;;
13228;SDS011;6680;53.220;10.402;2022-12-17T01:35:36;21.57;;;15.07;;
13228;SDS011;6680;53.220;10.402;2022-12-17T01:38:20;27.97;;;15.43;;
13228;SDS011;6680;53.220;10.402;2022-12-17T01:41:04;28.93;;;15.40;;
13228;SDS011;6680;53.220;10.402;2022-12-17T01:43:50;26.77;;;15.57;;
13228;SDS011;6680;53.220;10.402;2022-12-17T01:46:35;27.63;;;15.93;;
13228;SDS011;6680;53.220;10.402;2022-12-17T01:49:21;26.07;;;15.07;;
13228;SDS011;6680;53.220;10.402;2022-12-17T01:52:08;26.50;;;16.23;;
13228;SDS011;6680;53.220;10.402;2022-12-17T01:54:54;26.93;;;14.23;;
13228;SDS011;6680;53.220;10.402;2022-12-17T01:57:39;28.87;;;15.20;;
13228;SDS011;6680;53.220;10.402;2022-12-17T02:00:39;26.20;;;15.93;;
13228;SDS011;6680;53.220;10.402;2022-12-17T02:03:23;24.70;;;15.60;;
13228;SDS011;6680;53.220;10.402;2022-12-17T02:06:09;24.00;;;13.90;;
13228;SDS011;6680;53.220;10.402;2022-12-17T02:09:02;25.80;;;15.13;;
13228;SDS011;6680;53.220;10.402;2022-12-17T02:11:55;29.63;;;15.23;;
13228;SDS011;6680;53.220;10.402;2022-12-17T02:14:50;24.63;;;15.43;;
13228;SDS011;6680;53.220;10.402;2022-12-17T02:17:45;26.73;;;14.97;;
13228;SDS011;6680;53.220;10.402;2022-12-17T02:20:38;31.90;;;16.23;;
13228;SDS011;6680;53.220;10.402;2022-12-17T02:23:28;23.07;;;14.53;;
13228;SDS011;6680;53.220;10.402;2022-12-17T02:26:29;27.70;;;15.00;;
13228;SDS011;6680;53.220;10.402;2022-12-17T02:29:18;24.53;;;14.10;;
13228;SDS011;6680;53.220;10.402;2022-12-17T02:32:04;24.83;;;15.20;;
13228;SDS011;6680;53.220;10.402;2022-12-17T02:34:50;23.73;;;15.90;;
13228;SDS011;6680;53.220;10.402;2022-12-17T02:37:44;28.57;;;15.93;;
13228;SDS011;6680;53.220;10.402;2022-12-17T02:40:29;28.03;;;14.40;;
13228;SDS011;6680;53.220;10.402;2022-12-17T02:43:15;29.53;;;16.17;;
13228;SDS011;6680;53.220;10.402;2022-12-17T02:46:00;22.23;;;15.70;;
13228;SDS011;6680;53.220;10.402;2022-12-17T02:48:45;27.03;;;14.80;;
13228;SDS011;6680;53.220;10.402;2022-12-17T02:51:30;29.00;;;15.40;;
13228;SDS011;6680;53.220;10.402;2022-12-17T02:54:15;23.70;;;15.00;;
13228;SDS011;6680;53.220;10.402;2022-12-17T02:56:59;28.43;;;15.03;;
13228;SDS011;6680;53.220;10.402;2022-12-17T02:59:44;25.43;;;15.33;;
13228;SDS011;6680;53.220;10.402;2022-12-17T03:02:29;25.50;;;15.97;;
13228;SDS011;6680;53.220;10.402;2022-12-17T03:05:13;21.87;;;13.47;;
13228;SDS011;6680;53.220;10.402;2022-12-17T03:07:57;23.70;;;13.87;;
13228;SDS011;6680;53.220;10.402;2022-12-17T03:10:56;22.13;;;14.20;;
13228;SDS011;6680;53.220;10.402;2022-12-17T03:13:40;25.87;;;15.80;;
13228;SDS011;6680;53.220;10.402;2022-12-17T03:16:26;22.80;;;14.33;;
13228;SDS011;6680;53.220;10.402;2022-12-17T03:19:11;26.47;;;14.77;;
13228;SDS011;6680;53.220;10.402;2022-12-17T03:21:55;22.70;;;14.73;;
13228;SDS011;6680;53.220;10.402;2022-12-17T03:24:39;24.77;;;14.57;;
13228;SDS011;6680;53.220;10.402;2022-12-17T03:27:23;21.50;;;13.87;;
13228;SDS011;6680;53.220;10.402;2022-12-17T03:30:08;33.57;;;15.93;;
13228;SDS011;6680;53.220;10.402;2022-12-17T03:32:54;22.73;;;14.43;;
13228;SDS011;6680;53.220;10.402;2022-12-17T03:35:38;25.80;;;15.00;;
13228;SDS011;6680;53.220;10.402;2022-12-17T03:38:37;24.30;;;14.40;;
13228;SDS011;6680;53.220;10.402;2022-12-17T03:41:21;22.37;;;14.67;;
13228;SDS011;6680;53.220;10.402;2022-12-17T03:44:05;24.67;;;15.43;;
13228;SDS011;6680;53.220;10.402;2022-12-17T03:46:50;24.57;;;13.50;;
13228;SDS011;6680;53.220;10.402;2022-12-17T03:49:35;24.63;;;13.87;;
13228;SDS011;6680;53.220;10.402;2022-12-17T03:52:19;22.77;;;13.63;;
13228;SDS011;6680;53.220;10.402;2022-12-17T03:55:04;23.77;;;14.60;;
13228;SDS011;6680;53.220;10.402;2022-12-17T03:57:49;27.63;;;14.47;;
13228;SDS011;6680;53.220;10.402;2022-12-17T04:00:33;30.50;;;15.33;;
13228;SDS011;6680;53.220;10.402;2022-12-17T04:03:17;25.07;;;13.97;;
13228;SDS011;6680;53.220;10.402;2022-12-17T04:06:03;29.03;;;15.27;;
13228;SDS011;6680;53.220;10.402;2022-12-17T04:08:47;28.70;;;15.90;;
13228;SDS011;6680;53.220;10.402;2022-12-17T04:11:37;28.03;;;15.03;;
13228;SDS011;6680;53.220;10.402;2022-12-17T04:14:21;19.80;;;14.13;;
13228;SDS011;6680;53.220;10.402;2022-12-17T04:17:05;21.43;;;13.63;;
13228;SDS011;6680;53.220;10.402;2022-12-17T04:19:50;25.30;;;14.43;;
13228;SDS011;6680;53.220;10.402;2022-12-17T04:22:35;34.80;;;15.37;;
13228;SDS011;6680;53.220;10.402;2022-12-17T04:25:19;26.97;;;14.63;;
13228;SDS011;6680;53.220;10.402;2022-12-17T04:28:03;24.43;;;15.40;;
13228;SDS011;6680;53.220;10.402;2022-12-17T04:30:48;27.30;;;13.33;;
13228;SDS011;6680;53.220;10.402;2022-12-17T04:33:34;26.30;;;15.57;;
13228;SDS011;6680;53.220;10.402;2022-12-17T04:36:18;25.47;;;13.90;;
13228;SDS011;6680;53.220;10.402;2022-12-17T04:39:04;27.30;;;15.20;;
13228;SDS011;6680;53.220;10.402;2022-12-17T04:41:48;22.83;;;13.70;;
13228;SDS011;6680;53.220;10.402;2022-12-17T04:44:32;27.23;;;13.77;;
13228;SDS011;6680;53.220;10.402;2022-12-17T04:47:16;26.97;;;14.53;;
13228;SDS011;6680;53.220;10.402;2022-12-17T04:50:00;26.40;;;13.97;;
13228;SDS011;6680;53.220;10.402;2022-12-17T04:52:44;26.77;;;14.10;;
13228;SDS011;6680;53.220;10.402;2022-12-17T04:55:30;23.93;;;13.47;;
13228;SDS011;6680;53.220;10.402;2022-12-17T04:58:14;24.47;;;14.07;;
13228;SDS011;6680;53.220;10.402;2022-12-17T05:00:58;22.43;;;14.37;;
13228;SDS011;6680;53.220;10.402;2022-12-17T05:03:43;29.47;;;14.70;;
13228;SDS011;6680;53.220;10.402;2022-12-17T05:06:27;23.03;;;12.20;;
13228;SDS011;6680;53.220;10.402;2022-12-17T05:09:11;25.83;;;12.97;;
13228;SDS011;6680;53.220;10.402;2022-12-17T05:11:57;28.73;;;13.07;;
13228;SDS011;6680;53.220;10.402;2022-12-17T05:14:41;22.73;;;14.60;;
13228;SDS011;6680;53.220;10.402;2022-12-17T05:17:25;25.43;;;14.43;;
13228;SDS011;6680;53.220;10.402;2022-12-17T05:20:09;25.70;;;14.00;;
13228;SDS011;6680;53.220;10.402;2022-12-17T05:22:54;30.93;;;15.23;;
13228;SDS011;6680;53.220;10.402;2022-12-17T05:25:38;44.23;;;15.23;;
13228;SDS011;6680;53.220;10.402;2022-12-17T05:28:23;30.07;;;15.60;;
13228;SDS011;6680;53.220;10.402;2022-12-17T05:31:07;25.87;;;14.83;;
13228;SDS011;6680;53.220;10.402;2022-12-17T05:33:52;25.67;;;14.03;;
13228;SDS011;6680;53.220;10.402;2022-12-17T05:36:36;20.30;;;13.17;;
13228;SDS011;6680;53.220;10.402;2022-12-17T05:39:21;30.30;;;15.70;;
13228;SDS011;6680;53.220;10.402;2022-12-17T05:42:05;27.83;;;14.27;;
13228;SDS011;6680;53.220;10.402;2022-12-17T05:44:50;27.20;;;14.30;;
13228;SDS011;6680;53.220;10.402;2022-12-17T05:47:35;22.97;;;13.90;;
13228;SDS011;6680;53.220;10.402;2022-12-17T05:50:19;23.40;;;13.67;;
13228;SDS011;6680;53.220;10.402;2022-12-17T05:53:03;24.50;;;13.87;;
13228;SDS011;6680;53.220;10.402;2022-12-17T05:55:48;23.90;;;13.75;;
13228;SDS011;6680;53.220;10.402;2022-12-17T05:58:33;24.40;;;13.15;;
13228;SDS011;6680;53.220;10.402;2022-12-17T06:01:18;24.67;;;15.27;;
13228;SDS011;6680;53.220;10.402;2022-12-17T06:04:02;18.67;;;12.43;;
13228;SDS011;6680;53.220;10.402;2022-12-17T06:06:47;27.20;;;15.83;;
13228;SDS011;6680;53.220;10.402;2022-12-17T06:09:31;25.00;;;13.50;;
13228;SDS011;6680;53.220;10.402;2022-12-17T06:12:15;21.93;;;13.50;;
13228;SDS011;6680;53.220;10.402;2022-12-17T06:14:59;29.25;;;15.65;;
13228;SDS011;6680;53.220;10.402;2022-12-17T06:17:52;21.60;;;13.73;;
13228;SDS011;6680;53.220;10.402;2022-12-17T06:20:37;27.90;;;14.88;;
13228;SDS011;6680;53.220;10.402;2022-12-17T06:23:21;26.23;;;14.00;;
13228;SDS011;6680;53.220;10.402;2022-12-17T06:26:05;26.23;;;14.53;;
13228;SDS011;6680;53.220;10.402;2022-12-17T06:28:49;21.63;;;12.20;;
13228;SDS011;6680;53.220;10.402;2022-12-17T06:31:34;24.85;;;14.18;;
13228;SDS011;6680;53.220;10.402;2022-12-17T06:34:19;28.80;;;14.43;;
13228;SDS011;6680;53.220;10.402;2022-12-17T06:37:03;24.83;;;14.87;;
13228;SDS011;6680;53.220;10.402;2022-12-17T06:39:48;25.58;;;15.23;;
13228;SDS011;6680;53.220;10.402;2022-12-17T06:42:32;24.10;;;13.73;;
13228;SDS011;6680;53.220;10.402;2022-12-17T06:45:17;24.63;;;13.63;;
13228;SDS011;6680;53.220;10.402;2022-12-17T06:48:01;24.40;;;15.77;;
13228;SDS011;6680;53.220;10.402;2022-12-17T06:50:48;26.52;;;13.95;;
13228;SDS011;6680;53.220;10.402;2022-12-17T06:53:35;24.80;;;13.77;;
13228;SDS011;6680;53.220;10.402;2022-12-17T06:56:19;24.40;;;14.02;;
13228;SDS011;6680;53.220;10.402;2022-12-17T06:59:03;21.60;;;14.35;;
13228;SDS011;6680;53.220;10.402;2022-12-17T07:01:47;22.98;;;13.93;;
13228;SDS011;6680;53.220;10.402;2022-12-17T07:04:32;31.48;;;14.27;;
13228;SDS011;6680;53.220;10.402;2022-12-17T07:07:17;24.90;;;14.30;;
13228;SDS011;6680;53.220;10.402;2022-12-17T07:10:01;30.13;;;15.03;;
13228;SDS011;6680;53.220;10.402;2022-12-17T07:12:46;28.48;;;13.57;;
13228;SDS011;6680;53.220;10.402;2022-12-17T07:15:41;27.20;;;14.40;;
13228;SDS011;6680;53.220;10.402;2022-12-17T07:18:25;22.02;;;13.82;;
13228;SDS011;6680;53.220;10.402;2022-12-17T07:21:10;27.42;;;15.52;;
13228;SDS011;6680;53.220;10.402;2022-12-17T07:23:55;25.80;;;14.10;;
13228;SDS011;6680;53.220;10.402;2022-12-17T07:26:40;25.67;;;14.88;;
13228;SDS011;6680;53.220;10.402;2022-12-17T07:29:24;23.23;;;13.77;;
13228;SDS011;6680;53.220;10.402;2022-12-17T07:32:08;26.83;;;14.77;;
13228;SDS011;6680;53.220;10.402;2022-12-17T07:34:57;27.00;;;14.82;;
13228;SDS011;6680;53.220;10.402;2022-12-17T07:37:42;21.30;;;13.20;;
13228;SDS011;6680;53.220;10.402;2022-12-17T07:40:27;20.05;;;13.10;;
13228;SDS011;6680;53.220;10.402;2022-12-17T07:43:11;22.40;;;13.55;;
13228;SDS011;6680;53.220;10.402;2022-12-17T07:46:11;26.47;;;15.57;;
13228;SDS011;6680;53.220;10.402;2022-12-17T07:49:04;32.13;;;13.40;;
13228;SDS011;6680;53.220;10.402;2022-12-17T07:51:56;23.92;;;13.80;;
13228;SDS011;6680;53.220;10.402;2022-12-17T07:54:42;24.00;;;13.40;;
13228;SDS011;6680;53.220;10.402;2022-12-17T07:57:27;26.08;;;14.57;;
13228;SDS011;6680;53.220;10.402;2022-12-17T08:00:12;26.42;;;13.93;;
13228;SDS011;6680;53.220;10.402;2022-12-17T08:02:57;25.40;;;14.18;;
13228;SDS011;6680;53.220;10.402;2022-12-17T08:05:42;23.75;;;13.00;;
13228;SDS011;6680;53.220;10.402;2022-12-17T08:08:26;21.98;;;13.18;;
13228;SDS011;6680;53.220;10.402;2022-12-17T08:11:10;25.30;;;13.23;;
13228;SDS011;6680;53.220;10.402;2022-12-17T08:13:56;23.30;;;12.40;;
13228;SDS011;6680;53.220;10.402;2022-12-17T08:16:40;21.42;;;12.90;;
13228;SDS011;6680;53.220;10.402;2022-12-17T08:19:24;19.80;;;12.35;;
13228;SDS011;6680;53.220;10.402;2022-12-17T08:22:08;27.30;;;12.45;;
13228;SDS011;6680;53.220;10.402;2022-12-17T08:24:54;24.67;;;13.83;;
13228;SDS011;6680;53.220;10.402;2022-12-17T08:27:38;26.33;;;13.52;;
13228;SDS011;6680;53.220;10.402;2022-12-17T08:30:23;24.98;;;13.57;;
13228;SDS011;6680;53.220;10.402;2022-12-17T08:33:08;25.17;;;15.38;;
13228;SDS011;6680;53.220;10.402;2022-12-17T08:35:52;22.00;;;12.68;;
13228;SDS011;6680;53.220;10.402;2022-12-17T08:38:36;28.02;;;15.23;;
13228;SDS011;6680;53.220;10.402;2022-12-17T08:41:21;23.83;;;14.20;;
13228;SDS011;6680;53.220;10.402;2022-12-17T08:44:05;20.67;;;12.20;;
13228;SDS011;6680;53.220;10.402;2022-12-17T08:46:51;24.17;;;15.30;;
13228;SDS011;6680;53.220;10.402;2022-12-17T08:49:35;25.60;;;13.68;;
13228;SDS011;6680;53.220;10.402;2022-12-17T08:52:19;26.73;;;14.73;;
13228;SDS011;6680;53.220;10.402;2022-12-17T08:55:04;21.03;;;13.10;;
13228;SDS011;6680;53.220;10.402;2022-12-17T08:57:52;25.20;;;13.53;;
13228;SDS011;6680;53.220;10.402;2022-12-17T09:00:37;24.27;;;13.20;;
13228;SDS011;6680;53.220;10.402;2022-12-17T09:03:23;26.17;;;14.27;;
13228;SDS011;6680;53.220;10.402;2022-12-17T09:06:08;26.30;;;14.45;;
13228;SDS011;6680;53.220;10.402;2022-12-17T09:08:52;22.63;;;13.35;;
13228;SDS011;6680;53.220;10.402;2022-12-17T09:11:36;26.37;;;13.53;;
13228;SDS011;6680;53.220;10.402;2022-12-17T09:14:21;26.05;;;13.60;;
13228;SDS011;6680;53.220;10.402;2022-12-17T09:17:05;25.67;;;14.37;;
13228;SDS011;6680;53.220;10.402;2022-12-17T09:19:51;19.85;;;12.48;;
13228;SDS011;6680;53.220;10.402;2022-12-17T09:22:36;24.92;;;12.75;;
13228;SDS011;6680;53.220;10.402;2022-12-17T09:25:20;25.55;;;14.18;;
13228;SDS011;6680;53.220;10.402;2022-12-17T09:28:04;25.07;;;14.23;;
13228;SDS011;6680;53.220;10.402;2022-12-17T09:30:49;20.63;;;13.27;;
13228;SDS011;6680;53.220;10.402;2022-12-17T09:33:33;24.77;;;13.40;;
13228;SDS011;6680;53.220;10.402;2022-12-17T09:36:20;21.27;;;12.60;;
13228;SDS011;6680;53.220;10.402;2022-12-17T09:39:04;24.70;;;13.50;;
13228;SDS011;6680;53.220;10.402;2022-12-17T09:41:51;23.07;;;12.70;;
13228;SDS011;6680;53.220;10.402;2022-12-17T09:44:43;26.43;;;13.30;;
13228;SDS011;6680;53.220;10.402;2022-12-17T09:47:36;22.47;;;13.57;;
13228;SDS011;6680;53.220;10.402;2022-12-17T09:50:29;32.63;;;15.10;;
13228;SDS011;6680;53.220;10.402;2022-12-17T09:53:18;25.43;;;13.87;;
13228;SDS011;6680;53.220;10.402;2022-12-17T09:56:05;23.57;;;13.33;;
13228;SDS011;6680;53.220;10.402;2022-12-17T09:59:06;27.57;;;12.90;;
13228;SDS011;6680;53.220;10.402;2022-12-17T10:01:54;22.97;;;14.07;;
13228;SDS011;6680;53.220;10.402;2022-12-17T10:04:43;23.80;;;14.40;;
13228;SDS011;6680;53.220;10.402;2022-12-17T10:07:30;24.97;;;13.60;;
13228;SDS011;6680;53.220;10.402;2022-12-17T10:10:20;20.70;;;12.80;;
13228;SDS011;6680;53.220;10.402;2022-12-17T10:13:08;21.27;;;11.30;;
13228;SDS011;6680;53.220;10.402;2022-12-17T10:15:54;25.67;;;12.40;;
13228;SDS011;6680;53.220;10.402;2022-12-17T10:18:38;21.97;;;12.00;;
13228;SDS011;6680;53.220;10.402;2022-12-17T10:21:22;16.60;;;11.67;;
13228;SDS011;6680;53.220;10.402;2022-12-17T10:24:07;24.77;;;13.17;;
13228;SDS011;6680;53.220;10.402;2022-12-17T10:26:54;25.87;;;13.00;;
13228;SDS011;6680;53.220;10.402;2022-12-17T10:29:39;24.07;;;14.53;;
13228;SDS011;6680;53.220;10.402;2022-12-17T10:32:25;19.10;;;11.97;;
13228;SDS011;6680;53.220;10.402;2022-12-17T10:35:12;22.00;;;13.57;;
13228;SDS011;6680;53.220;10.402;2022-12-17T10:38:08;18.80;;;13.00;;
13228;SDS011;6680;53.220;10.402;2022-12-17T10:40:54;24.80;;;12.33;;
13228;SDS011;6680;53.220;10.402;2022-12-17T10:43:40;26.37;;;13.97;;
13228;SDS011;6680;53.220;10.402;2022-12-17T10:46:25;22.10;;;13.00;;
13228;SDS011;6680;53.220;10.402;2022-12-17T10:49:12;23.33;;;13.20;;
13228;SDS011;6680;53.220;10.402;2022-12-17T10:51:58;23.57;;;12.43;;
13228;SDS011;6680;53.220;10.402;2022-12-17T10:54:53;22.77;;;13.47;;
13228;SDS011;6680;53.220;10.402;2022-12-17T10:57:38;23.07;;;13.40;;
13228;SDS011;6680;53.220;10.402;2022-12-17T11:00:26;23.27;;;13.30;;
13228;SDS011;6680;53.220;10.402;2022-12-17T11:03:26;25.97;;;14.07;;
13228;SDS011;6680;53.220;10.402;2022-12-17T11:06:13;21.13;;;12.50;;
13228;SDS011;6680;53.220;10.402;2022-12-17T11:09:13;20.60;;;12.47;;
13228;SDS011;6680;53.220;10.402;2022-12-17T11:12:01;28.03;;;14.07;;
13228;SDS011;6680;53.220;10.402;2022-12-17T11:14:49;21.90;;;12.47;;
13228;SDS011;6680;53.220;10.402;2022-12-17T11:17:37;23.63;;;13.53;;
13228;SDS011;6680;53.220;10.402;2022-12-17T11:20:25;24.37;;;13.03;;
13228;SDS011;6680;53.220;10.402;2022-12-17T11:23:17;24.00;;;13.97;;
13228;SDS011;6680;53.220;10.402;2022-12-17T11:26:04;23.87;;;13.73;;
13228;SDS011;6680;53.220;10.402;2022-12-17T11:28:51;21.53;;;12.33;;
13228;SDS011;6680;53.220;10.402;2022-12-17T11:31:43;23.93;;;13.63;;
13228;SDS011;6680;53.220;10.402;2022-12-17T11:34:42;25.70;;;14.43;;
13228;SDS011;6680;53.220;10.402;2022-12-17T11:37:41;25.33;;;13.73;;
13228;SDS011;6680;53.220;10.402;2022-12-17T11:40:35;28.60;;;14.20;;
13228;SDS011;6680;53.220;10.402;2022-12-17T11:43:24;26.73;;;13.27;;
13228;SDS011;6680;53.220;10.402;2022-12-17T11:46:17;25.67;;;15.53;;
13228;SDS011;6680;53.220;10.402;2022-12-17T11:49:10;23.90;;;13.67;;
13228;SDS011;6680;53.220;10.402;2022-12-17T11:52:12;27.40;;;14.67;;
13228;SDS011;6680;53.220;10.402;2022-12-17T11:55:08;25.77;;;12.87;;
13228;SDS011;6680;53.220;10.402;2022-12-17T11:58:02;23.17;;;13.90;;
13228;SDS011;6680;53.220;10.402;2022-12-17T12:00:52;20.43;;;12.70;;
13228;SDS011;6680;53.220;10.402;2022-12-17T12:03:49;19.73;;;12.77;;
13228;SDS011;6680;53.220;10.402;2022-12-17T12:06:42;24.53;;;12.57;;
13228;SDS011;6680;53.220;10.402;2022-12-17T12:09:37;20.30;;;12.23;;
13228;SDS011;6680;53.220;10.402;2022-12-17T12:12:32;19.97;;;11.67;;
13228;SDS011;6680;53.220;10.402;2022-12-17T12:15:27;17.27;;;11.53;;
13228;SDS011;6680;53.220;10.402;2022-12-17T12:18:23;21.43;;;12.40;;
13228;SDS011;6680;53.220;10.402;2022-12-17T12:21:17;25.80;;;12.77;;
13228;SDS011;6680;53.220;10.402;2022-12-17T12:24:16;20.57;;;12.00;;
13228;SDS011;6680;53.220;10.402;2022-12-17T12:27:13;20.57;;;12.07;;
13228;SDS011;6680;53.220;10.402;2022-12-17T12:30:08;15.47;;;10.07;;
13228;SDS011;6680;53.220;10.402;2022-12-17T12:32:57;20.70;;;11.90;;
13228;SDS011;6680;53.220;10.402;2022-12-17T12:35:51;18.73;;;11.40;;
13228;SDS011;6680;53.220;10.402;2022-12-17T12:38:39;17.70;;;11.10;;
13228;SDS011;6680;53.220;10.402;2022-12-17T12:41:27;15.37;;;9.40;;
13228;SDS011;6680;53.220;10.402;2022-12-17T12:44:23;17.23;;;9.30;;
13228;SDS011;6680;53.220;10.402;2022-12-17T12:47:16;19.43;;;10.27;;
13228;SDS011;6680;53.220;10.402;2022-12-17T12:50:08;16.20;;;9.97;;
13228;SDS011;6680;53.220;10.402;2022-12-17T12:52:58;14.03;;;8.73;;
13228;SDS011;6680;53.220;10.402;2022-12-17T12:55:43;16.17;;;9.60;;
13228;SDS011;6680;53.220;10.402;2022-12-17T12:58:28;15.60;;;9.47;;
13228;SDS011;6680;53.220;10.402;2022-12-17T13:01:15;12.13;;;7.93;;
13228;SDS011;6680;53.220;10.402;2022-12-17T13:04:01;13.37;;;7.67;;
13228;SDS011;6680;53.220;10.402;2022-12-17T13:06:59;14.53;;;8.00;;
13228;SDS011;6680;53.220;10.402;2022-12-17T13:09:30;9.50;;;7.07;;
13228;SDS011;6680;53.220;10.402;2022-12-17T13:12:13;15.33;;;7.10;;
13228;SDS011;6680;53.220;10.402;2022-12-17T13:14:47;9.07;;;7.23;;
13228;SDS011;6680;53.220;10.402;2022-12-17T13:17:23;12.37;;;7.63;;
13228;SDS011;6680;53.220;10.402;2022-12-17T13:20:00;11.03;;;7.50;;
13228;SDS011;6680;53.220;10.402;2022-12-17T13:22:48;10.03;;;7.13;;
13228;SDS011;6680;53.220;10.402;2022-12-17T13:25:16;12.10;;;7.07;;
13228;SDS011;6680;53.220;10.402;2022-12-17T13:27:45;10.77;;;7.67;;
13228;SDS011;6680;53.220;10.402;2022-12-17T13:30:20;10.70;;;7.43;;
13228;SDS011;6680;53.220;10.402;2022-12-17T13:33:00;9.90;;;7.57;;
13228;SDS011;6680;53.220;10.402;2022-12-17T13:35:42;11.27;;;6.97;;
13228;SDS011;6680;53.220;10.402;2022-12-17T13:38:15;11.13;;;6.50;;
13228;SDS011;6680;53.220;10.402;2022-12-17T13:40:54;10.60;;;6.77;;
13228;SDS011;6680;53.220;10.402;2022-12-17T13:43:29;11.03;;;7.00;;
13228;SDS011;6680;53.220;10.402;2022-12-17T13:45:58;12.00;;;7.90;;
13228;SDS011;6680;53.220;10.402;2022-12-17T13:48:26;10.97;;;7.47;;
13228;SDS011;6680;53.220;10.402;2022-12-17T13:50:55;11.10;;;6.87;;
13228;SDS011;6680;53.220;10.402;2022-12-17T13:53:23;10.97;;;7.27;;
13228;SDS011;6680;53.220;10.402;2022-12-17T13:55:51;10.93;;;6.83;;
13228;SDS011;6680;53.220;10.402;2022-12-17T13:58:20;11.40;;;7.77;;
13228;SDS011;6680;53.220;10.402;2022-12-17T14:00:48;10.83;;;7.17;;
13228;SDS011;6680;53.220;10.402;2022-12-17T14:03:17;14.63;;;8.03;;
13228;SDS011;6680;53.220;10.402;2022-12-17T14:05:47;10.43;;;7.63;;
13228;SDS011;6680;53.220;10.402;2022-12-17T14:08:15;16.53;;;6.47;;
13228;SDS011;6680;53.220;10.402;2022-12-17T14:10:44;10.17;;;7.40;;
13228;SDS011;6680;53.220;10.402;2022-12-17T14:13:16;14.17;;;7.97;;
13228;SDS011;6680;53.220;10.402;2022-12-17T14:15:43;12.20;;;7.83;;
13228;SDS011;6680;53.220;10.402;2022-12-17T14:18:12;12.57;;;8.90;;
13228;SDS011;6680;53.220;10.402;2022-12-17T14:20:42;15.77;;;9.23;;
13228;SDS011;6680;53.220;10.402;2022-12-17T14:23:11;14.30;;;8.73;;
13228;SDS011;6680;53.220;10.402;2022-12-17T14:25:44;13.77;;;7.93;;
13228;SDS011;6680;53.220;10.402;2022-12-17T14:28:19;12.73;;;8.30;;
13228;SDS011;6680;53.220;10.402;2022-12-17T14:30:47;12.97;;;7.30;;
13228;SDS011;6680;53.220;10.402;2022-12-17T14:33:24;13.63;;;8.13;;
13228;SDS011;6680;53.220;10.402;2022-12-17T14:35:53;10.57;;;7.80;;
13228;SDS011;6680;53.220;10.402;2022-12-17T14:38:22;14.37;;;8.40;;
13228;SDS011;6680;53.220;10.402;2022-12-17T14:40:50;15.67;;;8.90;;
13228;SDS011;6680;53.220;10.402;2022-12-17T14:43:19;16.77;;;9.57;;
13228;SDS011;6680;53.220;10.402;2022-12-17T14:45:51;13.53;;;8.73;;
13228;SDS011;6680;53.220;10.402;2022-12-17T14:48:40;14.87;;;8.17;;
13228;SDS011;6680;53.220;10.402;2022-12-17T14:51:31;10.67;;;7.53;;
13228;SDS011;6680;53.220;10.402;2022-12-17T14:54:20;13.97;;;8.63;;
13228;SDS011;6680;53.220;10.402;2022-12-17T14:56:55;13.00;;;9.33;;
13228;SDS011;6680;53.220;10.402;2022-12-17T14:59:24;16.80;;;9.40;;
13228;SDS011;6680;53.220;10.402;2022-12-17T15:02:00;14.63;;;9.33;;
13228;SDS011;6680;53.220;10.402;2022-12-17T15:04:30;13.10;;;9.07;;
13228;SDS011;6680;53.220;10.402;2022-12-17T15:06:57;21.43;;;10.23;;
13228;SDS011;6680;53.220;10.402;2022-12-17T15:09:26;17.27;;;10.03;;
13228;SDS011;6680;53.220;10.402;2022-12-17T15:11:53;16.87;;;9.37;;
13228;SDS011;6680;53.220;10.402;2022-12-17T15:14:19;13.87;;;8.37;;
13228;SDS011;6680;53.220;10.402;2022-12-17T15:16:46;15.70;;;9.73;;
13228;SDS011;6680;53.220;10.402;2022-12-17T15:19:13;18.63;;;12.00;;
13228;SDS011;6680;53.220;10.402;2022-12-17T15:21:39;14.93;;;10.13;;
13228;SDS011;6680;53.220;10.402;2022-12-17T15:24:08;15.40;;;9.67;;
13228;SDS011;6680;53.220;10.402;2022-12-17T15:26:38;17.23;;;10.83;;
13228;SDS011;6680;53.220;10.402;2022-12-17T15:29:04;16.40;;;9.27;;
13228;SDS011;6680;53.220;10.402;2022-12-17T15:31:31;16.83;;;10.93;;
13228;SDS011;6680;53.220;10.402;2022-12-17T15:33:58;18.97;;;10.60;;
13228;SDS011;6680;53.220;10.402;2022-12-17T15:36:24;18.67;;;10.77;;
13228;SDS011;6680;53.220;10.402;2022-12-17T15:38:51;18.17;;;10.60;;
13228;SDS011;6680;53.220;10.402;2022-12-17T15:41:18;17.53;;;10.90;;
13228;SDS011;6680;53.220;10.402;2022-12-17T15:44:03;17.10;;;10.87;;
13228;SDS011;6680;53.220;10.402;2022-12-17T15:46:30;19.30;;;9.80;;
13228;SDS011;6680;53.220;10.402;2022-12-17T15:48:56;18.17;;;11.13;;
13228;SDS011;6680;53.220;10.402;2022-12-17T15:51:23;14.87;;;10.13;;
13228;SDS011;6680;53.220;10.402;2022-12-17T15:53:50;30.67;;;12.07;;
13228;SDS011;6680;53.220;10.402;2022-12-17T15:56:17;20.70;;;11.50;;
13228;SDS011;6680;53.220;10.402;2022-12-17T15:58:46;14.43;;;11.43;;
13228;SDS011;6680;53.220;10.402;2022-12-17T16:01:14;21.50;;;10.10;;